createdAt,value
2023-02-03T00:01:11.978Z,4.10
2023-02-03T00:03:39.521Z,1.05
2023-02-03T00:06:06.938Z,0.88
2023-02-03T00:08:34.401Z,0.32
2023-02-03T00:11:01.674Z,1.25
2023-02-03T00:13:29.253Z,1.83
2023-02-03T00:15:56.499Z,1.67
2023-02-03T00:18:23.736Z,2.03
2023-02-03T00:20:50.942Z,1.25
2023-02-03T00:23:18.223Z,3.28
2023-02-03T00:25:45.491Z,3.70
2023-02-03T00:28:12.782Z,6.85
2023-02-03T00:30:40.039Z,1.05
2023-02-03T00:33:07.256Z,4.05
2023-02-03T00:35:34.556Z,4.05
2023-02-03T00:38:01.777Z,1.75
2023-02-03T00:40:30.094Z,0.85
2023-02-03T00:42:57.444Z,1.75
2023-02-03T00:45:24.760Z,3.72
2023-02-03T00:47:52.211Z,1.45
2023-02-03T00:50:19.427Z,1.65
2023-02-03T00:52:46.677Z,4.05
2023-02-03T00:55:13.885Z,2.05
2023-02-03T00:57:41.081Z,1.70
2023-02-03T01:00:08.851Z,0.65
2023-02-03T01:02:36.408Z,3.60
2023-02-03T01:05:04.600Z,0.20
2023-02-03T01:07:33.309Z,1.83
2023-02-03T01:10:00.665Z,0.93
2023-02-03T01:12:29.667Z,1.02
2023-02-03T01:17:24.024Z,0.52
2023-02-03T01:19:51.736Z,0.32
2023-02-03T01:22:19.370Z,0.88
2023-02-03T01:24:46.646Z,1.02
2023-02-03T01:27:13.832Z,0.43
2023-02-03T01:29:41.078Z,1.38
2023-02-03T01:32:08.415Z,0.95
2023-02-03T01:34:35.662Z,2.55
2023-02-03T01:37:02.908Z,0.63
2023-02-03T01:39:30.178Z,0.75
2023-02-03T01:41:57.432Z,2.08
2023-02-03T01:44:40.207Z,1.23
2023-02-03T01:47:19.077Z,2.40
2023-02-03T01:52:16.465Z,0.50
2023-02-03T01:54:45.353Z,3.33
2023-02-03T01:59:39.887Z,0.73
2023-02-03T02:02:07.932Z,2.22
2023-02-03T02:04:43.785Z,0.60
2023-02-03T02:07:11.094Z,1.67
2023-02-03T02:09:38.396Z,0.88
2023-02-03T02:12:05.683Z,0.60
2023-02-03T02:14:34.061Z,1.83
2023-02-03T02:17:11.643Z,3.60
2023-02-03T02:20:02.591Z,1.55
2023-02-03T02:22:52.499Z,0.73
2023-02-03T02:25:26.003Z,1.83
2023-02-03T02:28:14.748Z,0.52
2023-02-03T02:33:37.884Z,2.55
2023-02-03T02:36:14.105Z,1.08
2023-02-03T02:38:53.844Z,1.52
2023-02-03T02:41:25.439Z,0.85
2023-02-03T02:44:04.707Z,1.00
2023-02-03T02:46:34.801Z,3.00
2023-02-03T02:49:10.386Z,1.42
2023-02-03T02:51:39.048Z,1.30
2023-02-03T02:54:08.055Z,1.67
2023-02-03T02:56:37.378Z,0.43
2023-02-03T02:59:05.674Z,2.78
2023-02-03T03:01:33.396Z,3.05
2023-02-03T03:04:02.071Z,1.90
2023-02-03T03:06:51.319Z,1.05
2023-02-03T03:09:21.630Z,4.03
2023-02-03T03:11:53.408Z,0.85
2023-02-03T03:14:21.591Z,2.35
2023-02-03T03:16:52.462Z,1.50
2023-02-03T03:19:22.066Z,2.63
2023-02-03T03:22:01.303Z,1.85
2023-02-03T03:24:37.134Z,0.68
2023-02-03T03:27:04.375Z,1.83
2023-02-03T03:29:35.843Z,2.22
2023-02-03T03:32:03.666Z,0.40
2023-02-03T03:34:31.097Z,3.03
2023-02-03T03:37:10.137Z,0.63
2023-02-03T03:39:43.152Z,0.63
2023-02-03T03:42:10.345Z,0.45
2023-02-03T03:44:40.865Z,0.68
2023-02-03T03:47:28.538Z,0.88
2023-02-03T03:49:56.494Z,1.50
2023-02-03T03:52:27.444Z,0.32
2023-02-03T03:54:55.549Z,1.88
2023-02-03T03:57:35.058Z,0.50
2023-02-03T04:00:03.340Z,2.72
2023-02-03T04:02:30.930Z,0.50
2023-02-03T04:04:59.792Z,0.32
2023-02-03T04:07:38.498Z,3.53
2023-02-03T04:12:32.905Z,0.43
2023-02-03T04:15:00.150Z,1.23
2023-02-03T04:17:27.384Z,0.55
2023-02-03T04:19:54.606Z,0.50
2023-02-03T04:22:21.822Z,0.80
2023-02-03T04:24:49.055Z,1.58
2023-02-03T04:27:16.307Z,0.43
2023-02-03T04:29:43.483Z,3.05
2023-02-03T04:32:10.780Z,1.02
2023-02-03T04:34:38.294Z,3.92
2023-02-03T04:37:05.495Z,1.65
2023-02-03T04:39:32.725Z,1.25
2023-02-03T04:41:59.977Z,0.80
2023-02-03T04:44:27.181Z,0.93
2023-02-03T04:46:54.403Z,0.38
2023-02-03T04:49:21.688Z,4.65
2023-02-03T04:51:52.037Z,1.38
2023-02-03T04:54:19.258Z,0.30
2023-02-03T04:56:46.461Z,0.85
2023-02-03T04:59:13.683Z,1.90
2023-02-03T05:01:40.913Z,1.27
2023-02-03T05:04:08.144Z,0.38
2023-02-03T05:06:35.462Z,1.83
2023-02-03T05:09:02.799Z,0.80
2023-02-03T05:11:30.299Z,0.35
2023-02-03T05:13:57.888Z,0.32
2023-02-03T05:16:25.179Z,0.73
2023-02-03T05:18:52.450Z,2.17
2023-02-03T05:21:19.863Z,0.85
2023-02-03T05:23:47.206Z,0.30
2023-02-03T05:26:14.422Z,1.30
2023-02-03T05:28:41.649Z,1.63
2023-02-03T05:31:09.091Z,0.40
2023-02-03T05:33:36.481Z,1.67
2023-02-03T05:36:03.743Z,1.83
2023-02-03T05:38:31.020Z,1.00
2023-02-03T05:41:17.266Z,1.00
2023-02-03T05:43:44.550Z,0.73
2023-02-03T05:46:11.895Z,1.13
2023-02-03T05:48:39.197Z,1.42
2023-02-03T05:51:06.578Z,0.73
2023-02-03T05:53:33.785Z,0.30
2023-02-03T05:56:01.120Z,0.68
2023-02-03T05:58:28.327Z,1.65
2023-02-03T06:00:55.629Z,1.45
2023-02-03T06:03:23.007Z,0.50
2023-02-03T06:05:50.517Z,0.45
2023-02-03T06:08:17.877Z,1.13
2023-02-03T06:10:45.277Z,0.45
2023-02-03T06:13:13.652Z,0.30
2023-02-03T06:15:40.959Z,1.17
2023-02-03T06:18:08.652Z,1.08
2023-02-03T06:20:36.389Z,2.33
2023-02-03T06:23:03.983Z,0.82
2023-02-03T06:25:44.110Z,0.43
2023-02-03T06:28:11.484Z,1.38
2023-02-03T06:30:38.823Z,0.40
2023-02-03T06:33:06.266Z,3.75
2023-02-03T06:35:33.515Z,1.20
2023-02-03T06:38:00.767Z,0.50
2023-02-03T06:40:28.439Z,1.27
2023-02-03T06:42:55.936Z,4.23
2023-02-03T06:45:24.938Z,8.32
2023-02-03T06:47:52.233Z,8.77
2023-02-03T06:50:19.594Z,8.18
2023-02-03T06:52:47.079Z,14.43
2023-02-03T06:55:14.334Z,13.65
2023-02-03T06:57:45.710Z,13.52
2023-02-03T07:00:15.552Z,15.05
2023-02-03T07:02:44.251Z,15.18
2023-02-03T07:05:11.825Z,11.05
2023-02-03T07:07:39.474Z,4.88
2023-02-03T07:10:07.388Z,5.97
2023-02-03T07:12:36.518Z,2.63
2023-02-03T07:15:04.695Z,3.70
2023-02-03T07:17:32.320Z,4.60
2023-02-03T07:19:59.874Z,10.88
2023-02-03T07:22:27.237Z,31.52
2023-02-03T07:24:54.430Z,32.90
2023-02-03T07:27:21.756Z,27.85
2023-02-03T07:29:48.995Z,29.08
2023-02-03T07:32:16.325Z,24.63
2023-02-03T07:34:43.581Z,19.65
2023-02-03T07:37:10.899Z,21.92
2023-02-03T07:39:38.054Z,24.80
2023-02-03T07:42:05.457Z,22.42
2023-02-03T07:44:32.660Z,12.80
2023-02-03T07:46:59.912Z,18.02
2023-02-03T07:49:28.125Z,16.65
2023-02-03T07:51:56.641Z,12.85
2023-02-03T07:54:23.883Z,9.00
2023-02-03T07:56:51.123Z,6.80
2023-02-03T07:59:19.402Z,6.85
2023-02-03T08:01:46.820Z,17.02
2023-02-03T08:04:16.621Z,16.80
2023-02-03T08:06:44.519Z,20.02
2023-02-03T08:09:11.785Z,15.43
2023-02-03T08:11:39.027Z,20.25
2023-02-03T08:14:06.221Z,15.07
2023-02-03T08:16:33.542Z,24.13
2023-02-03T08:19:00.819Z,20.58
2023-02-03T08:21:28.066Z,38.25
2023-02-03T08:23:55.935Z,35.13
2023-02-03T08:26:23.226Z,56.92
2023-02-03T08:28:50.468Z,50.22
2023-02-03T08:31:17.950Z,55.38
2023-02-03T08:33:45.274Z,44.65
2023-02-03T08:36:12.540Z,41.50
2023-02-03T08:38:40.315Z,36.65
2023-02-03T08:41:14.942Z,31.80
2023-02-03T08:43:42.249Z,20.83
2023-02-03T08:46:10.837Z,38.33
2023-02-03T08:48:38.472Z,34.50
2023-02-03T08:51:12.478Z,17.60
2023-02-03T08:53:39.789Z,26.42
2023-02-03T08:56:11.500Z,16.73
2023-02-03T08:58:39.312Z,28.60
2023-02-03T09:01:14.515Z,39.15
2023-02-03T09:03:42.138Z,32.13
2023-02-03T09:06:11.797Z,28.15
2023-02-03T09:08:39.291Z,16.02
2023-02-03T09:11:14.149Z,19.02
2023-02-03T09:13:45.849Z,49.88
2023-02-03T09:16:13.896Z,66.30
2023-02-03T09:18:41.154Z,19.20
2023-02-03T09:21:13.922Z,53.03
2023-02-03T09:23:48.160Z,16.27
2023-02-03T09:26:16.013Z,15.05
2023-02-03T09:28:43.339Z,12.98
2023-02-03T09:31:11.628Z,13.27
2023-02-03T09:33:39.287Z,14.85
2023-02-03T09:36:06.965Z,14.80
2023-02-03T09:38:34.935Z,20.15
2023-02-03T09:41:28.453Z,19.48
2023-02-03T09:44:01.823Z,14.40
2023-02-03T09:46:30.858Z,11.48
2023-02-03T09:51:29.302Z,7.22
2023-02-03T09:54:01.451Z,6.90
2023-02-03T09:56:33.116Z,9.55
2023-02-03T09:59:00.571Z,13.88
2023-02-03T10:01:31.504Z,16.17
2023-02-03T10:03:58.686Z,10.05
2023-02-03T10:06:31.779Z,13.82
2023-02-03T10:09:02.435Z,14.05
2023-02-03T10:11:42.384Z,6.13
2023-02-03T10:14:12.571Z,8.57
2023-02-03T10:16:39.900Z,21.45
2023-02-03T10:19:11.243Z,16.95
2023-02-03T10:21:42.119Z,15.82
2023-02-03T10:24:16.028Z,7.90
2023-02-03T10:26:43.438Z,9.35
2023-02-03T10:29:19.164Z,16.25
2023-02-03T10:31:47.668Z,11.05
2023-02-03T10:34:16.401Z,5.18
2023-02-03T10:36:46.654Z,2.45
2023-02-03T10:39:20.154Z,19.52
2023-02-03T10:41:47.383Z,19.90
2023-02-03T10:44:15.535Z,12.07
2023-02-03T10:46:44.245Z,9.63
2023-02-03T10:49:14.745Z,8.35
2023-02-03T10:51:50.541Z,16.90
2023-02-03T10:54:34.481Z,30.45
2023-02-03T10:57:06.676Z,31.92
2023-02-03T10:59:38.397Z,27.98
2023-02-03T11:02:22.678Z,15.45
2023-02-03T11:05:08.854Z,29.52
2023-02-03T11:07:36.049Z,35.63
2023-02-03T11:10:03.278Z,11.45
2023-02-03T11:12:30.477Z,9.23
2023-02-03T11:15:06.074Z,18.30
2023-02-03T11:17:36.503Z,14.93
2023-02-03T11:20:13.681Z,14.05
2023-02-03T11:22:42.524Z,7.50
2023-02-03T11:25:21.084Z,7.57
2023-02-03T11:27:48.431Z,11.77
2023-02-03T11:30:17.648Z,13.38
2023-02-03T11:32:45.747Z,4.72
2023-02-03T11:35:12.917Z,2.50
2023-02-03T11:37:42.071Z,4.45
2023-02-03T11:40:11.497Z,4.20
2023-02-03T11:42:41.749Z,4.60
2023-02-03T11:45:47.743Z,6.70
2023-02-03T11:48:19.129Z,3.92
2023-02-03T11:50:50.278Z,4.93
2023-02-03T11:53:55.151Z,2.10
2023-02-03T11:56:32.970Z,3.92
2023-02-03T11:59:03.260Z,9.82
2023-02-03T12:01:45.641Z,10.70
2023-02-03T12:04:24.860Z,16.23
2023-02-03T12:07:09.426Z,26.75
2023-02-03T12:09:43.436Z,13.95
2023-02-03T12:12:10.632Z,21.98
2023-02-03T12:14:40.587Z,17.48
2023-02-03T12:17:48.908Z,14.88
2023-02-03T12:20:16.168Z,7.60
2023-02-03T12:22:48.530Z,14.38
2023-02-03T12:25:27.210Z,20.83
2023-02-03T12:27:54.431Z,9.30
2023-02-03T12:30:40.235Z,12.43
2023-02-03T12:33:12.595Z,10.48
2023-02-03T12:35:49.318Z,11.57
2023-02-03T12:38:28.195Z,6.68
2023-02-03T12:43:25.231Z,8.23
2023-02-03T12:45:55.289Z,8.25
2023-02-03T12:48:30.142Z,10.68
2023-02-03T12:51:00.288Z,11.77
2023-02-03T12:53:35.775Z,14.27
2023-02-03T12:56:13.870Z,8.60
2023-02-03T12:58:41.170Z,12.68
2023-02-03T13:01:11.632Z,8.75
2023-02-03T13:03:56.526Z,10.65
2023-02-03T13:06:23.815Z,5.78
2023-02-03T13:09:01.783Z,6.00
2023-02-03T13:11:34.932Z,5.90
2023-02-03T13:14:11.724Z,3.05
2023-02-03T13:16:43.305Z,5.30
2023-02-03T13:19:18.203Z,2.80
2023-02-03T13:21:46.721Z,6.18
2023-02-03T13:24:13.950Z,4.47
2023-02-03T13:26:50.626Z,5.72
2023-02-03T13:29:20.722Z,4.80
2023-02-03T13:31:48.042Z,4.22
2023-02-03T13:34:31.763Z,6.20
2023-02-03T13:37:17.271Z,2.92
2023-02-03T13:39:53.771Z,3.40
2023-02-03T13:42:23.294Z,4.90
2023-02-03T13:44:53.467Z,4.45
2023-02-03T13:47:26.575Z,5.70
2023-02-03T13:49:56.552Z,5.25
2023-02-03T13:52:28.768Z,6.35
2023-02-03T13:54:56.905Z,11.10
2023-02-03T13:57:31.363Z,8.83
2023-02-03T13:59:58.666Z,12.00
2023-02-03T14:02:25.882Z,10.45
2023-02-03T14:04:55.257Z,24.38
2023-02-03T14:07:28.390Z,15.57
2023-02-03T14:10:16.659Z,10.70
2023-02-03T14:12:54.545Z,12.57
2023-02-03T14:15:32.052Z,8.53
2023-02-03T14:18:18.048Z,9.02
2023-02-03T14:20:48.931Z,8.90
2023-02-03T14:23:21.371Z,14.63
2023-02-03T14:26:14.744Z,10.32
2023-02-03T14:28:43.733Z,15.73
2023-02-03T14:33:57.479Z,13.30
2023-02-03T14:36:40.281Z,14.75
2023-02-03T14:39:22.627Z,13.63
2023-02-03T14:41:49.856Z,15.90
2023-02-03T14:44:26.587Z,30.13
2023-02-03T14:46:59.828Z,23.20
2023-02-03T14:49:33.409Z,20.90
2023-02-03T14:52:23.734Z,24.90
2023-02-03T14:54:51.011Z,32.80
2023-02-03T14:57:27.561Z,67.53
2023-02-03T15:00:02.196Z,28.25
2023-02-03T15:02:31.179Z,22.80
2023-02-03T15:07:44.770Z,18.05
2023-02-03T15:10:16.735Z,12.73
2023-02-03T15:12:48.271Z,10.20
2023-02-03T15:15:21.157Z,8.05
2023-02-03T15:17:48.897Z,12.27
2023-02-03T15:20:26.877Z,11.27
2023-02-03T15:22:54.145Z,9.10
2023-02-03T15:25:25.298Z,6.25
2023-02-03T15:27:52.946Z,7.35
2023-02-03T15:30:27.864Z,8.73
2023-02-03T15:32:55.299Z,6.15
2023-02-03T15:35:23.175Z,4.95
2023-02-03T15:37:58.543Z,4.35
2023-02-03T15:40:28.949Z,8.20
2023-02-03T15:43:02.359Z,7.32
2023-02-03T15:45:37.804Z,9.07
2023-02-03T15:48:29.532Z,4.55
2023-02-03T15:51:30.356Z,4.70
2023-02-03T15:54:06.859Z,5.03
2023-02-03T15:56:40.997Z,7.10
2023-02-03T15:59:33.764Z,7.68
2023-02-03T16:02:02.747Z,9.32
2023-02-03T16:04:31.444Z,10.13
2023-02-03T16:06:59.908Z,9.23
2023-02-03T16:09:31.539Z,7.28
2023-02-03T16:12:17.328Z,4.65
2023-02-03T16:14:45.282Z,13.38
2023-02-03T16:17:24.855Z,18.25
2023-02-03T16:19:52.433Z,14.88
2023-02-03T16:22:38.797Z,15.15
2023-02-03T16:25:25.883Z,11.75
2023-02-03T16:28:16.407Z,14.30
2023-02-03T16:31:16.306Z,15.02
2023-02-03T16:34:06.134Z,18.00
2023-02-03T16:36:52.036Z,25.92
2023-02-03T16:39:38.270Z,21.00
2023-02-03T16:42:28.995Z,18.75
2023-02-03T16:45:17.409Z,21.25
2023-02-03T16:48:05.003Z,25.20
2023-02-03T16:50:51.539Z,27.90
2023-02-03T16:53:20.365Z,21.48
2023-02-03T16:55:48.133Z,19.77
2023-02-03T16:58:15.652Z,28.25
2023-02-03T17:00:46.933Z,14.48
2023-02-03T17:03:15.943Z,19.15
2023-02-03T17:08:10.931Z,12.70
2023-02-03T17:10:38.984Z,12.02
2023-02-03T17:13:06.212Z,16.93
2023-02-03T17:15:33.465Z,15.90
2023-02-03T17:18:00.935Z,21.95
2023-02-03T17:20:28.166Z,27.17
2023-02-03T17:22:55.541Z,19.83
2023-02-03T17:25:23.057Z,27.10
2023-02-03T17:27:50.380Z,39.00
2023-02-03T17:30:17.744Z,27.42
2023-02-03T17:32:45.022Z,24.08
2023-02-03T17:35:12.261Z,25.42
2023-02-03T17:37:39.538Z,16.48
2023-02-03T17:54:04.907Z,11.07
2023-02-03T17:56:32.406Z,15.57
2023-02-03T17:59:01.069Z,21.98
2023-02-03T18:01:28.747Z,13.68
2023-02-03T18:03:57.100Z,17.58
2023-02-03T18:06:25.299Z,12.30
2023-02-03T18:08:53.863Z,12.68
2023-02-03T18:11:21.463Z,10.15
2023-02-03T18:13:50.198Z,15.73
2023-02-03T18:16:22.264Z,10.77
2023-02-03T18:18:51.468Z,14.45
2023-02-03T18:21:19.937Z,13.50
2023-02-03T18:23:49.151Z,8.48
2023-02-03T18:26:16.848Z,6.45
2023-02-03T18:28:44.098Z,9.88
2023-02-03T18:31:12.613Z,4.75
2023-02-03T18:33:40.132Z,8.38
2023-02-03T18:36:07.614Z,15.75
2023-02-03T18:38:36.133Z,14.25
2023-02-03T18:41:06.177Z,5.15
2023-02-03T18:43:33.427Z,14.45
2023-02-03T18:46:00.703Z,7.93
2023-02-03T18:48:27.958Z,7.43
2023-02-03T18:50:55.198Z,5.03
2023-02-03T18:53:22.407Z,9.75
2023-02-03T18:55:49.614Z,9.07
2023-02-03T18:58:16.956Z,5.38
2023-02-03T19:00:44.165Z,5.72
2023-02-03T19:03:11.365Z,7.57
2023-02-03T19:05:40.799Z,6.50
2023-02-03T19:08:08.620Z,9.52
2023-02-03T19:10:36.366Z,8.55
2023-02-03T19:13:03.579Z,8.55
2023-02-03T19:15:31.145Z,9.40
2023-02-03T19:17:58.345Z,8.05
2023-02-03T19:20:25.565Z,3.95
2023-02-03T19:22:54.471Z,5.15
2023-02-03T19:27:48.377Z,4.38
2023-02-03T19:30:16.588Z,6.25
2023-02-03T19:32:43.779Z,3.63
2023-02-03T19:35:11.110Z,4.15
2023-02-03T19:37:38.336Z,4.68
2023-02-03T19:40:06.171Z,4.72
2023-02-03T19:42:33.487Z,7.30
2023-02-03T19:45:00.709Z,3.40
2023-02-03T19:47:27.928Z,4.45
2023-02-03T19:49:55.198Z,3.13
2023-02-03T19:52:22.369Z,3.38
2023-02-03T19:54:49.627Z,4.50
2023-02-03T19:57:16.894Z,4.50
2023-02-03T19:59:44.082Z,4.85
2023-02-03T20:02:14.252Z,7.90
2023-02-03T20:04:44.258Z,5.93
2023-02-03T20:07:12.611Z,4.97
2023-02-03T20:09:41.031Z,5.45
2023-02-03T20:12:08.271Z,7.63
2023-02-03T20:14:35.613Z,3.22
2023-02-03T20:17:05.043Z,3.63
2023-02-03T20:19:32.266Z,3.22
2023-02-03T20:22:01.192Z,14.45
2023-02-03T20:26:55.154Z,6.45
2023-02-03T20:29:22.401Z,6.43
2023-02-03T20:31:50.811Z,5.95
2023-02-03T20:34:18.953Z,4.43
2023-02-03T20:36:46.145Z,7.05
2023-02-03T20:39:18.277Z,4.18
2023-02-03T20:41:45.656Z,4.35
2023-02-03T20:44:14.054Z,9.70
2023-02-03T20:46:41.647Z,8.95
2023-02-03T20:49:16.554Z,3.97
2023-02-03T20:51:43.789Z,7.30
2023-02-03T20:54:18.555Z,3.65
2023-02-03T20:56:45.871Z,6.28
2023-02-03T20:59:13.884Z,3.50
2023-02-03T21:01:41.279Z,7.73
2023-02-03T21:04:34.030Z,10.15
2023-02-03T21:07:02.055Z,8.38
2023-02-03T21:09:29.261Z,6.07
2023-02-03T21:11:56.527Z,6.95
2023-02-03T21:14:32.097Z,4.57
2023-02-03T21:16:59.653Z,1.92
2023-02-03T21:19:34.141Z,6.82
2023-02-03T21:22:14.756Z,12.43
2023-02-03T21:24:45.612Z,10.95
2023-02-03T21:27:26.564Z,11.15
2023-02-03T21:29:56.648Z,6.47
2023-02-03T21:32:26.701Z,10.07
2023-02-03T21:34:54.039Z,9.82
2023-02-03T21:37:21.204Z,6.85
2023-02-03T21:39:48.795Z,6.65
2023-02-03T21:42:42.321Z,8.00
2023-02-03T21:45:16.570Z,13.10
2023-02-03T21:47:47.650Z,15.30
2023-02-03T21:50:35.223Z,17.90
2023-02-03T21:53:08.240Z,20.08
2023-02-03T21:55:41.034Z,18.05
2023-02-03T21:58:28.834Z,21.17
2023-02-03T22:00:57.093Z,16.20
2023-02-03T22:03:35.627Z,7.22
2023-02-03T22:06:08.940Z,6.10
2023-02-03T22:08:40.094Z,7.65
2023-02-03T22:11:07.655Z,6.20
2023-02-03T22:13:35.160Z,5.05
2023-02-03T22:16:02.540Z,5.68
2023-02-03T22:18:29.749Z,7.60
2023-02-03T22:20:57.011Z,4.60
2023-02-03T22:23:24.213Z,4.25
2023-02-03T22:25:51.494Z,3.38
2023-02-03T22:28:18.790Z,3.92
2023-02-03T22:30:46.144Z,4.40
2023-02-03T22:33:13.474Z,4.85
2023-02-03T22:35:40.763Z,6.45
2023-02-03T22:38:07.966Z,5.25
2023-02-03T22:40:35.356Z,5.10
2023-02-03T22:43:03.138Z,3.13
2023-02-03T22:45:30.348Z,3.85
2023-02-03T22:48:00.226Z,7.85
2023-02-03T22:50:35.831Z,3.50
2023-02-03T22:53:07.088Z,4.53
2023-02-03T22:55:34.375Z,3.72
2023-02-03T22:58:04.594Z,2.58
2023-02-03T23:00:32.634Z,1.98
2023-02-03T23:03:00.370Z,2.13
2023-02-03T23:05:27.715Z,3.33
2023-02-03T23:07:55.015Z,1.55
2023-02-03T23:10:26.246Z,3.70
2023-02-03T23:12:53.684Z,3.30
2023-02-03T23:15:21.030Z,2.05
2023-02-03T23:17:48.272Z,2.33
2023-02-03T23:20:16.484Z,4.47
2023-02-03T23:22:43.995Z,3.05
2023-02-03T23:25:11.986Z,4.30
2023-02-03T23:27:39.293Z,4.13
2023-02-03T23:30:07.520Z,3.85
2023-02-03T23:32:34.838Z,7.28
2023-02-03T23:35:20.970Z,5.10
2023-02-03T23:37:48.204Z,3.35
2023-02-03T23:40:15.450Z,6.03
2023-02-03T23:42:42.653Z,9.95
2023-02-03T23:45:12.194Z,14.38
2023-02-03T23:47:43.095Z,19.73
2023-02-03T23:50:11.762Z,19.25
2023-02-03T23:52:39.064Z,18.13
2023-02-03T23:55:10.257Z,7.65
2023-02-03T23:57:37.903Z,6.90
